Terminal Aerodrome Forecast
Issued by NWS Charleston, WV

Current Version | Previous Version | Graphics & Text | Print | Product List | Glossary On
Versions: 1 2 3 4 5 6 7 8 9 10 11 12 13 14 15 16 17 18 19 20 21 22 23 24 25 26 27
176
FTUS41 KRLX 200901 AAA
TAFCRW
TAF AMD
KCRW 200901Z 2009/2106 00000KT 1SM BR BKN001
     FM201200 00000KT 4SM BR FEW001
     FM201300 00000KT P6SM FEW250
     FM201800 22003KT P6SM SCT050
     FM210000 00000KT P6SM FEW250=

USA.gov is the U.S. government's official web portal to all federal, state and local government web resources and services.